Hooper, Utah
Current Conditions -  °F | °C
As of 2:53 AM on Friday 21 Nov 2014 (Local Time) from KOGD Reporting Station
Clear Clear  
Wind Chill: 24°   Ceiling: Unl
Heat Index: 29°   Visibility: 10mi
Dew Point: 22°   Wind: 5mph
Humidity: 75%   Direction: 170°S
Pressure: 30.02"   Gusts: NA
Location:  41.17°N, 112.13°W
Report Text: KOGD 210953Z AUTO 17004KT 10SM CLR M02/M06 A3002 RMK AO2 SLP163 T10171056 TSNO
Loading
Personal Weather Stations






























Interactive Weather Map New forecast layout! Learn more

10-Day Weather Forecast

Advertisements
Track Severe Weather on mobile